sensor_id;sensor_type;location;lat;lon;timestamp;P1;durP1;ratioP1;P2;durP2;ratioP2
20523;SDS011;10420;48.542;12.270;2023-05-18T00:00:47;9.20;;;4.57;;
20523;SDS011;10420;48.542;12.270;2023-05-18T00:05:48;10.43;;;5.23;;
20523;SDS011;10420;48.542;12.270;2023-05-18T00:10:48;11.27;;;5.00;;
20523;SDS011;10420;48.542;12.270;2023-05-18T00:15:49;8.97;;;4.93;;
20523;SDS011;10420;48.542;12.270;2023-05-18T00:20:50;10.77;;;4.83;;
20523;SDS011;10420;48.542;12.270;2023-05-18T00:25:50;10.67;;;5.20;;
20523;SDS011;10420;48.542;12.270;2023-05-18T00:30:54;9.97;;;4.83;;
20523;SDS011;10420;48.542;12.270;2023-05-18T00:35:55;9.87;;;5.13;;
20523;SDS011;10420;48.542;12.270;2023-05-18T00:40:56;10.83;;;4.93;;
20523;SDS011;10420;48.542;12.270;2023-05-18T00:45:57;12.07;;;4.60;;
20523;SDS011;10420;48.542;12.270;2023-05-18T00:50:57;13.13;;;4.80;;
20523;SDS011;10420;48.542;12.270;2023-05-18T00:55:58;7.80;;;4.33;;
20523;SDS011;10420;48.542;12.270;2023-05-18T01:00:59;12.17;;;5.30;;
20523;SDS011;10420;48.542;12.270;2023-05-18T01:06:01;13.00;;;4.70;;
20523;SDS011;10420;48.542;12.270;2023-05-18T01:11:13;14.13;;;5.10;;
20523;SDS011;10420;48.542;12.270;2023-05-18T01:16:27;11.17;;;5.07;;
20523;SDS011;10420;48.542;12.270;2023-05-18T01:26:49;13.87;;;5.00;;
20523;SDS011;10420;48.542;12.270;2023-05-18T01:31:56;12.53;;;4.73;;
20523;SDS011;10420;48.542;12.270;2023-05-18T01:36:57;10.87;;;5.67;;
20523;SDS011;10420;48.542;12.270;2023-05-18T01:41:58;11.53;;;4.77;;
20523;SDS011;10420;48.542;12.270;2023-05-18T01:47:12;7.80;;;4.63;;
20523;SDS011;10420;48.542;12.270;2023-05-18T01:52:22;9.27;;;5.17;;
20523;SDS011;10420;48.542;12.270;2023-05-18T01:57:28;11.63;;;4.47;;
20523;SDS011;10420;48.542;12.270;2023-05-18T02:02:32;8.90;;;5.03;;
20523;SDS011;10420;48.542;12.270;2023-05-18T02:07:32;13.77;;;5.63;;
20523;SDS011;10420;48.542;12.270;2023-05-18T02:12:33;11.40;;;5.37;;
20523;SDS011;10420;48.542;12.270;2023-05-18T02:17:34;8.97;;;4.83;;
20523;SDS011;10420;48.542;12.270;2023-05-18T02:22:36;12.07;;;5.50;;
20523;SDS011;10420;48.542;12.270;2023-05-18T02:27:37;9.30;;;5.03;;
20523;SDS011;10420;48.542;12.270;2023-05-18T02:32:38;9.47;;;5.00;;
20523;SDS011;10420;48.542;12.270;2023-05-18T02:37:38;8.30;;;5.17;;
20523;SDS011;10420;48.542;12.270;2023-05-18T02:42:42;12.90;;;5.80;;
20523;SDS011;10420;48.542;12.270;2023-05-18T02:47:43;13.47;;;5.57;;
20523;SDS011;10420;48.542;12.270;2023-05-18T02:52:43;11.53;;;6.23;;
20523;SDS011;10420;48.542;12.270;2023-05-18T02:57:44;13.50;;;5.23;;
20523;SDS011;10420;48.542;12.270;2023-05-18T03:02:46;10.97;;;5.80;;
20523;SDS011;10420;48.542;12.270;2023-05-18T03:07:47;14.43;;;5.77;;
20523;SDS011;10420;48.542;12.270;2023-05-18T03:12:49;10.67;;;6.17;;
20523;SDS011;10420;48.542;12.270;2023-05-18T03:17:50;13.73;;;6.30;;
20523;SDS011;10420;48.542;12.270;2023-05-18T03:22:51;9.07;;;4.97;;
20523;SDS011;10420;48.542;12.270;2023-05-18T03:27:51;12.83;;;5.30;;
20523;SDS011;10420;48.542;12.270;2023-05-18T03:32:52;13.17;;;6.03;;
20523;SDS011;10420;48.542;12.270;2023-05-18T03:37:52;11.27;;;5.87;;
20523;SDS011;10420;48.542;12.270;2023-05-18T03:42:53;14.20;;;6.43;;
20523;SDS011;10420;48.542;12.270;2023-05-18T03:47:54;13.57;;;6.80;;
20523;SDS011;10420;48.542;12.270;2023-05-18T03:52:55;9.67;;;5.93;;
20523;SDS011;10420;48.542;12.270;2023-05-18T03:57:55;11.73;;;6.10;;
20523;SDS011;10420;48.542;12.270;2023-05-18T04:02:58;12.27;;;6.30;;
20523;SDS011;10420;48.542;12.270;2023-05-18T04:07:59;13.10;;;5.77;;
20523;SDS011;10420;48.542;12.270;2023-05-18T04:13:00;12.00;;;6.23;;
20523;SDS011;10420;48.542;12.270;2023-05-18T04:18:00;11.73;;;6.03;;
20523;SDS011;10420;48.542;12.270;2023-05-18T04:23:01;13.40;;;5.70;;
20523;SDS011;10420;48.542;12.270;2023-05-18T04:28:04;11.00;;;5.70;;
20523;SDS011;10420;48.542;12.270;2023-05-18T04:33:05;10.33;;;5.83;;
20523;SDS011;10420;48.542;12.270;2023-05-18T04:38:05;8.47;;;5.63;;
20523;SDS011;10420;48.542;12.270;2023-05-18T04:43:06;14.63;;;6.00;;
20523;SDS011;10420;48.542;12.270;2023-05-18T04:48:07;14.33;;;5.70;;
20523;SDS011;10420;48.542;12.270;2023-05-18T04:53:07;10.17;;;6.03;;
20523;SDS011;10420;48.542;12.270;2023-05-18T04:58:11;15.17;;;6.50;;
20523;SDS011;10420;48.542;12.270;2023-05-18T05:03:12;12.10;;;6.87;;
20523;SDS011;10420;48.542;12.270;2023-05-18T05:08:12;14.70;;;7.07;;
20523;SDS011;10420;48.542;12.270;2023-05-18T05:13:14;14.30;;;7.43;;
20523;SDS011;10420;48.542;12.270;2023-05-18T05:18:14;24.07;;;10.93;;
20523;SDS011;10420;48.542;12.270;2023-05-18T05:23:15;22.30;;;11.17;;
20523;SDS011;10420;48.542;12.270;2023-05-18T05:28:16;13.27;;;6.93;;
20523;SDS011;10420;48.542;12.270;2023-05-18T05:33:16;18.83;;;8.67;;
20523;SDS011;10420;48.542;12.270;2023-05-18T05:38:17;19.43;;;8.90;;
20523;SDS011;10420;48.542;12.270;2023-05-18T05:43:18;14.27;;;6.47;;
20523;SDS011;10420;48.542;12.270;2023-05-18T05:48:18;16.33;;;6.97;;
20523;SDS011;10420;48.542;12.270;2023-05-18T05:53:19;10.80;;;5.27;;
20523;SDS011;10420;48.542;12.270;2023-05-18T05:58:22;11.13;;;5.90;;
20523;SDS011;10420;48.542;12.270;2023-05-18T06:03:22;17.57;;;5.60;;
20523;SDS011;10420;48.542;12.270;2023-05-18T06:08:23;15.33;;;5.37;;
20523;SDS011;10420;48.542;12.270;2023-05-18T06:13:24;18.37;;;5.67;;
20523;SDS011;10420;48.542;12.270;2023-05-18T06:18:25;9.50;;;5.17;;
20523;SDS011;10420;48.542;12.270;2023-05-18T06:23:25;11.37;;;5.50;;
20523;SDS011;10420;48.542;12.270;2023-05-18T06:28:26;12.83;;;5.30;;
20523;SDS011;10420;48.542;12.270;2023-05-18T06:33:27;13.03;;;5.47;;
20523;SDS011;10420;48.542;12.270;2023-05-18T06:38:27;11.67;;;5.00;;
20523;SDS011;10420;48.542;12.270;2023-05-18T06:43:28;12.55;;;4.80;;
20523;SDS011;10420;48.542;12.270;2023-05-18T06:48:29;16.60;;;5.43;;
20523;SDS011;10420;48.542;12.270;2023-05-18T06:53:29;24.05;;;9.43;;
20523;SDS011;10420;48.542;12.270;2023-05-18T06:58:31;12.05;;;5.35;;
20523;SDS011;10420;48.542;12.270;2023-05-18T07:03:31;16.85;;;5.22;;
20523;SDS011;10420;48.542;12.270;2023-05-18T07:08:32;11.00;;;4.53;;
20523;SDS011;10420;48.542;12.270;2023-05-18T07:13:35;8.52;;;4.25;;
20523;SDS011;10420;48.542;12.270;2023-05-18T07:18:36;11.88;;;4.60;;
20523;SDS011;10420;48.542;12.270;2023-05-18T07:23:37;15.82;;;4.38;;
20523;SDS011;10420;48.542;12.270;2023-05-18T07:28:38;11.88;;;4.32;;
20523;SDS011;10420;48.542;12.270;2023-05-18T07:33:38;11.45;;;4.22;;
20523;SDS011;10420;48.542;12.270;2023-05-18T07:38:39;8.43;;;4.38;;
20523;SDS011;10420;48.542;12.270;2023-05-18T07:43:40;12.23;;;4.38;;
20523;SDS011;10420;48.542;12.270;2023-05-18T07:48:41;13.15;;;4.43;;
20523;SDS011;10420;48.542;12.270;2023-05-18T07:53:41;17.73;;;4.22;;
20523;SDS011;10420;48.542;12.270;2023-05-18T07:58:44;6.10;;;3.58;;
20523;SDS011;10420;48.542;12.270;2023-05-18T08:03:45;16.90;;;3.88;;
20523;SDS011;10420;48.542;12.270;2023-05-18T08:08:46;12.20;;;3.65;;
20523;SDS011;10420;48.542;12.270;2023-05-18T08:13:46;14.50;;;5.90;;
20523;SDS011;10420;48.542;12.270;2023-05-18T08:18:47;10.63;;;3.72;;
20523;SDS011;10420;48.542;12.270;2023-05-18T08:23:48;9.65;;;3.85;;
20523;SDS011;10420;48.542;12.270;2023-05-18T08:28:48;8.80;;;3.65;;
20523;SDS011;10420;48.542;12.270;2023-05-18T08:33:49;7.57;;;3.20;;
20523;SDS011;10420;48.542;12.270;2023-05-18T08:38:50;12.98;;;4.18;;
20523;SDS011;10420;48.542;12.270;2023-05-18T08:43:53;18.92;;;3.50;;
20523;SDS011;10420;48.542;12.270;2023-05-18T08:49:04;10.30;;;3.50;;
20523;SDS011;10420;48.542;12.270;2023-05-18T08:54:08;13.35;;;3.30;;
20523;SDS011;10420;48.542;12.270;2023-05-18T08:59:10;8.15;;;3.70;;
20523;SDS011;10420;48.542;12.270;2023-05-18T09:04:13;11.55;;;3.40;;
20523;SDS011;10420;48.542;12.270;2023-05-18T09:09:15;10.05;;;3.15;;
20523;SDS011;10420;48.542;12.270;2023-05-18T09:14:17;11.73;;;3.47;;
20523;SDS011;10420;48.542;12.270;2023-05-18T09:19:18;13.18;;;3.58;;
20523;SDS011;10420;48.542;12.270;2023-05-18T09:24:19;10.27;;;3.40;;
20523;SDS011;10420;48.542;12.270;2023-05-18T09:29:20;14.50;;;3.58;;
20523;SDS011;10420;48.542;12.270;2023-05-18T09:34:23;10.25;;;3.50;;
20523;SDS011;10420;48.542;12.270;2023-05-18T09:39:23;9.93;;;3.03;;
20523;SDS011;10420;48.542;12.270;2023-05-18T09:44:29;10.63;;;3.70;;
20523;SDS011;10420;48.542;12.270;2023-05-18T09:49:31;10.00;;;3.35;;
20523;SDS011;10420;48.542;12.270;2023-05-18T09:54:31;12.88;;;3.28;;
20523;SDS011;10420;48.542;12.270;2023-05-18T09:59:35;10.35;;;3.30;;
20523;SDS011;10420;48.542;12.270;2023-05-18T10:04:36;8.27;;;3.33;;
20523;SDS011;10420;48.542;12.270;2023-05-18T10:09:42;13.05;;;3.78;;
20523;SDS011;10420;48.542;12.270;2023-05-18T10:14:44;10.07;;;3.22;;
20523;SDS011;10420;48.542;12.270;2023-05-18T10:19:46;15.95;;;4.03;;
20523;SDS011;10420;48.542;12.270;2023-05-18T10:24:51;13.45;;;4.10;;
20523;SDS011;10420;48.542;12.270;2023-05-18T10:29:54;11.30;;;3.30;;
20523;SDS011;10420;48.542;12.270;2023-05-18T10:34:57;11.25;;;3.38;;
20523;SDS011;10420;48.542;12.270;2023-05-18T10:39:59;14.45;;;3.38;;
20523;SDS011;10420;48.542;12.270;2023-05-18T10:45:00;7.25;;;3.10;;
20523;SDS011;10420;48.542;12.270;2023-05-18T10:50:02;13.82;;;3.70;;
20523;SDS011;10420;48.542;12.270;2023-05-18T10:55:04;7.75;;;3.15;;
20523;SDS011;10420;48.542;12.270;2023-05-18T11:00:07;11.60;;;4.15;;
20523;SDS011;10420;48.542;12.270;2023-05-18T11:05:09;11.52;;;3.15;;
20523;SDS011;10420;48.542;12.270;2023-05-18T11:10:10;12.18;;;3.53;;
20523;SDS011;10420;48.542;12.270;2023-05-18T11:15:12;15.02;;;4.00;;
20523;SDS011;10420;48.542;12.270;2023-05-18T11:20:15;8.95;;;3.47;;
20523;SDS011;10420;48.542;12.270;2023-05-18T11:30:26;12.98;;;3.92;;
20523;SDS011;10420;48.542;12.270;2023-05-18T11:35:27;8.75;;;2.92;;
20523;SDS011;10420;48.542;12.270;2023-05-18T11:40:46;8.65;;;3.60;;
20523;SDS011;10420;48.542;12.270;2023-05-18T11:45:52;11.75;;;3.47;;
20523;SDS011;10420;48.542;12.270;2023-05-18T11:50:56;13.60;;;4.05;;
20523;SDS011;10420;48.542;12.270;2023-05-18T11:55:58;11.57;;;4.30;;
20523;SDS011;10420;48.542;12.270;2023-05-18T12:00:59;7.20;;;3.30;;
20523;SDS011;10420;48.542;12.270;2023-05-18T12:06:01;12.82;;;3.90;;
20523;SDS011;10420;48.542;12.270;2023-05-18T12:11:05;16.50;;;3.65;;
20523;SDS011;10420;48.542;12.270;2023-05-18T12:16:06;11.38;;;4.07;;
20523;SDS011;10420;48.542;12.270;2023-05-18T12:21:07;10.15;;;4.00;;
20523;SDS011;10420;48.542;12.270;2023-05-18T12:26:08;14.82;;;4.65;;
20523;SDS011;10420;48.542;12.270;2023-05-18T12:31:09;13.80;;;4.03;;
20523;SDS011;10420;48.542;12.270;2023-05-18T12:36:11;14.32;;;3.80;;
20523;SDS011;10420;48.542;12.270;2023-05-18T12:41:20;15.68;;;3.50;;
20523;SDS011;10420;48.542;12.270;2023-05-18T12:46:21;17.67;;;6.85;;
20523;SDS011;10420;48.542;12.270;2023-05-18T12:51:23;18.95;;;8.50;;
20523;SDS011;10420;48.542;12.270;2023-05-18T13:01:58;14.38;;;3.58;;
20523;SDS011;10420;48.542;12.270;2023-05-18T13:06:58;12.77;;;4.18;;
20523;SDS011;10420;48.542;12.270;2023-05-18T13:11:59;10.93;;;3.72;;
20523;SDS011;10420;48.542;12.270;2023-05-18T13:17:01;12.40;;;3.55;;
20523;SDS011;10420;48.542;12.270;2023-05-18T13:22:01;12.73;;;3.58;;
20523;SDS011;10420;48.542;12.270;2023-05-18T13:27:02;8.55;;;3.50;;
20523;SDS011;10420;48.542;12.270;2023-05-18T13:32:03;14.35;;;4.35;;
20523;SDS011;10420;48.542;12.270;2023-05-18T13:37:04;12.93;;;3.65;;
20523;SDS011;10420;48.542;12.270;2023-05-18T13:42:05;17.13;;;3.97;;
20523;SDS011;10420;48.542;12.270;2023-05-18T13:47:07;12.65;;;3.83;;
20523;SDS011;10420;48.542;12.270;2023-05-18T13:52:08;12.50;;;4.22;;
20523;SDS011;10420;48.542;12.270;2023-05-18T13:57:08;7.53;;;3.85;;
20523;SDS011;10420;48.542;12.270;2023-05-18T14:02:09;12.13;;;4.18;;
20523;SDS011;10420;48.542;12.270;2023-05-18T14:07:10;11.13;;;4.07;;
20523;SDS011;10420;48.542;12.270;2023-05-18T14:12:11;9.25;;;3.63;;
20523;SDS011;10420;48.542;12.270;2023-05-18T14:17:12;10.18;;;3.47;;
20523;SDS011;10420;48.542;12.270;2023-05-18T14:22:12;10.65;;;3.70;;
20523;SDS011;10420;48.542;12.270;2023-05-18T14:27:15;14.98;;;3.63;;
20523;SDS011;10420;48.542;12.270;2023-05-18T14:32:16;15.98;;;5.38;;
20523;SDS011;10420;48.542;12.270;2023-05-18T14:37:19;10.63;;;3.47;;
20523;SDS011;10420;48.542;12.270;2023-05-18T14:42:20;12.88;;;3.58;;
20523;SDS011;10420;48.542;12.270;2023-05-18T14:47:21;8.27;;;3.72;;
20523;SDS011;10420;48.542;12.270;2023-05-18T14:52:21;9.80;;;3.80;;
20523;SDS011;10420;48.542;12.270;2023-05-18T14:57:22;13.15;;;4.03;;
20523;SDS011;10420;48.542;12.270;2023-05-18T15:02:23;14.95;;;4.47;;
20523;SDS011;10420;48.542;12.270;2023-05-18T15:07:23;19.90;;;4.47;;
20523;SDS011;10420;48.542;12.270;2023-05-18T15:12:24;12.15;;;4.28;;
20523;SDS011;10420;48.542;12.270;2023-05-18T15:17:25;8.88;;;4.28;;
20523;SDS011;10420;48.542;12.270;2023-05-18T15:22:25;11.65;;;4.03;;
20523;SDS011;10420;48.542;12.270;2023-05-18T15:27:26;13.30;;;3.90;;
20523;SDS011;10420;48.542;12.270;2023-05-18T15:32:27;12.38;;;4.70;;
20523;SDS011;10420;48.542;12.270;2023-05-18T15:37:27;12.47;;;4.00;;
20523;SDS011;10420;48.542;12.270;2023-05-18T15:42:28;12.65;;;3.60;;
20523;SDS011;10420;48.542;12.270;2023-05-18T15:47:29;12.50;;;4.13;;
20523;SDS011;10420;48.542;12.270;2023-05-18T15:52:29;10.75;;;3.90;;
20523;SDS011;10420;48.542;12.270;2023-05-18T15:57:30;17.35;;;3.97;;
20523;SDS011;10420;48.542;12.270;2023-05-18T16:02:32;8.98;;;3.78;;
20523;SDS011;10420;48.542;12.270;2023-05-18T16:07:32;11.48;;;4.13;;
20523;SDS011;10420;48.542;12.270;2023-05-18T16:12:34;10.85;;;4.53;;
20523;SDS011;10420;48.542;12.270;2023-05-18T16:17:34;14.88;;;4.32;;
20523;SDS011;10420;48.542;12.270;2023-05-18T16:22:35;9.63;;;3.63;;
20523;SDS011;10420;48.542;12.270;2023-05-18T16:27:36;11.52;;;4.60;;
20523;SDS011;10420;48.542;12.270;2023-05-18T16:32:36;10.80;;;3.97;;
20523;SDS011;10420;48.542;12.270;2023-05-18T16:37:37;13.00;;;4.50;;
20523;SDS011;10420;48.542;12.270;2023-05-18T16:42:38;7.75;;;3.90;;
20523;SDS011;10420;48.542;12.270;2023-05-18T16:47:38;13.07;;;5.03;;
20523;SDS011;10420;48.542;12.270;2023-05-18T16:52:39;13.60;;;4.37;;
20523;SDS011;10420;48.542;12.270;2023-05-18T16:57:40;18.87;;;4.23;;
20523;SDS011;10420;48.542;12.270;2023-05-18T17:02:42;12.73;;;4.37;;
20523;SDS011;10420;48.542;12.270;2023-05-18T17:07:43;10.03;;;3.80;;
20523;SDS011;10420;48.542;12.270;2023-05-18T17:12:44;12.07;;;4.67;;
20523;SDS011;10420;48.542;12.270;2023-05-18T17:17:44;11.53;;;4.43;;
20523;SDS011;10420;48.542;12.270;2023-05-18T17:22:45;10.50;;;3.47;;
20523;SDS011;10420;48.542;12.270;2023-05-18T17:27:45;8.27;;;3.40;;
20523;SDS011;10420;48.542;12.270;2023-05-18T17:32:46;7.43;;;3.53;;
20523;SDS011;10420;48.542;12.270;2023-05-18T17:37:49;7.73;;;3.70;;
20523;SDS011;10420;48.542;12.270;2023-05-18T17:42:50;8.00;;;3.33;;
20523;SDS011;10420;48.542;12.270;2023-05-18T17:47:50;8.87;;;3.40;;
20523;SDS011;10420;48.542;12.270;2023-05-18T17:52:51;8.30;;;3.27;;
20523;SDS011;10420;48.542;12.270;2023-05-18T17:57:53;5.07;;;2.77;;
20523;SDS011;10420;48.542;12.270;2023-05-18T18:02:54;10.13;;;3.10;;
20523;SDS011;10420;48.542;12.270;2023-05-18T18:07:54;6.63;;;3.13;;
20523;SDS011;10420;48.542;12.270;2023-05-18T18:12:57;11.57;;;3.60;;
20523;SDS011;10420;48.542;12.270;2023-05-18T18:17:58;9.87;;;3.57;;
20523;SDS011;10420;48.542;12.270;2023-05-18T18:22:58;6.13;;;3.47;;
20523;SDS011;10420;48.542;12.270;2023-05-18T18:27:59;9.20;;;3.63;;
20523;SDS011;10420;48.542;12.270;2023-05-18T18:32:59;11.87;;;3.90;;
20523;SDS011;10420;48.542;12.270;2023-05-18T18:38:00;9.13;;;3.57;;
20523;SDS011;10420;48.542;12.270;2023-05-18T18:43:01;7.63;;;3.50;;
20523;SDS011;10420;48.542;12.270;2023-05-18T18:48:01;7.70;;;3.90;;
20523;SDS011;10420;48.542;12.270;2023-05-18T18:53:02;8.50;;;3.30;;
20523;SDS011;10420;48.542;12.270;2023-05-18T18:58:03;6.63;;;3.40;;
20523;SDS011;10420;48.542;12.270;2023-05-18T19:03:03;5.67;;;3.30;;
20523;SDS011;10420;48.542;12.270;2023-05-18T19:08:04;10.23;;;3.70;;
20523;SDS011;10420;48.542;12.270;2023-05-18T19:13:05;11.03;;;3.50;;
20523;SDS011;10420;48.542;12.270;2023-05-18T19:18:05;10.77;;;3.90;;
20523;SDS011;10420;48.542;12.270;2023-05-18T19:23:06;7.23;;;3.57;;
20523;SDS011;10420;48.542;12.270;2023-05-18T19:28:07;9.63;;;3.60;;
20523;SDS011;10420;48.542;12.270;2023-05-18T19:33:08;8.77;;;3.50;;
20523;SDS011;10420;48.542;12.270;2023-05-18T19:38:08;6.03;;;3.60;;
20523;SDS011;10420;48.542;12.270;2023-05-18T19:43:09;10.50;;;3.90;;
20523;SDS011;10420;48.542;12.270;2023-05-18T19:48:10;7.83;;;3.83;;
20523;SDS011;10420;48.542;12.270;2023-05-18T19:53:11;9.47;;;3.53;;
20523;SDS011;10420;48.542;12.270;2023-05-18T19:58:12;9.87;;;3.73;;
20523;SDS011;10420;48.542;12.270;2023-05-18T20:03:12;10.07;;;3.23;;
20523;SDS011;10420;48.542;12.270;2023-05-18T20:08:13;9.77;;;3.53;;
20523;SDS011;10420;48.542;12.270;2023-05-18T20:13:14;12.13;;;4.00;;
20523;SDS011;10420;48.542;12.270;2023-05-18T20:18:14;8.37;;;3.47;;
20523;SDS011;10420;48.542;12.270;2023-05-18T20:23:15;15.37;;;3.50;;
20523;SDS011;10420;48.542;12.270;2023-05-18T20:28:17;8.20;;;3.47;;
20523;SDS011;10420;48.542;12.270;2023-05-18T20:33:17;10.10;;;3.53;;
20523;SDS011;10420;48.542;12.270;2023-05-18T20:38:19;7.17;;;3.83;;
20523;SDS011;10420;48.542;12.270;2023-05-18T20:43:20;11.33;;;4.10;;
20523;SDS011;10420;48.542;12.270;2023-05-18T20:48:20;8.50;;;4.07;;
20523;SDS011;10420;48.542;12.270;2023-05-18T20:53:25;6.97;;;3.80;;
20523;SDS011;10420;48.542;12.270;2023-05-18T20:58:26;10.50;;;3.67;;
20523;SDS011;10420;48.542;12.270;2023-05-18T21:03:26;8.87;;;3.67;;
20523;SDS011;10420;48.542;12.270;2023-05-18T21:08:29;6.87;;;3.50;;
20523;SDS011;10420;48.542;12.270;2023-05-18T21:13:29;8.40;;;3.77;;
20523;SDS011;10420;48.542;12.270;2023-05-18T21:18:30;8.40;;;3.70;;
20523;SDS011;10420;48.542;12.270;2023-05-18T21:23:32;9.57;;;4.80;;
20523;SDS011;10420;48.542;12.270;2023-05-18T21:28:34;20.27;;;7.23;;
20523;SDS011;10420;48.542;12.270;2023-05-18T21:33:34;14.80;;;7.63;;
20523;SDS011;10420;48.542;12.270;2023-05-18T21:38:35;13.17;;;6.90;;
20523;SDS011;10420;48.542;12.270;2023-05-18T21:43:36;11.20;;;5.10;;
20523;SDS011;10420;48.542;12.270;2023-05-18T21:48:36;8.47;;;4.20;;
20523;SDS011;10420;48.542;12.270;2023-05-18T21:53:37;10.10;;;4.43;;
20523;SDS011;10420;48.542;12.270;2023-05-18T21:58:37;22.27;;;7.33;;
20523;SDS011;10420;48.542;12.270;2023-05-18T22:03:38;13.90;;;5.07;;
20523;SDS011;10420;48.542;12.270;2023-05-18T22:08:39;12.33;;;6.73;;
20523;SDS011;10420;48.542;12.270;2023-05-18T22:13:40;10.43;;;5.13;;
20523;SDS011;10420;48.542;12.270;2023-05-18T22:18:41;11.20;;;5.20;;
20523;SDS011;10420;48.542;12.270;2023-05-18T22:23:41;11.73;;;4.70;;
20523;SDS011;10420;48.542;12.270;2023-05-18T22:28:42;10.67;;;4.30;;
20523;SDS011;10420;48.542;12.270;2023-05-18T22:33:42;5.77;;;4.17;;
20523;SDS011;10420;48.542;12.270;2023-05-18T22:38:43;9.30;;;4.33;;
20523;SDS011;10420;48.542;12.270;2023-05-18T22:43:45;12.50;;;4.73;;
20523;SDS011;10420;48.542;12.270;2023-05-18T22:48:45;12.43;;;5.07;;
20523;SDS011;10420;48.542;12.270;2023-05-18T22:53:47;11.23;;;4.20;;
20523;SDS011;10420;48.542;12.270;2023-05-18T22:58:47;15.20;;;4.83;;
20523;SDS011;10420;48.542;12.270;2023-05-18T23:03:48;13.20;;;5.03;;
20523;SDS011;10420;48.542;12.270;2023-05-18T23:08:49;9.67;;;4.90;;
20523;SDS011;10420;48.542;12.270;2023-05-18T23:13:49;12.10;;;4.83;;
20523;SDS011;10420;48.542;12.270;2023-05-18T23:18:50;10.00;;;5.17;;
20523;SDS011;10420;48.542;12.270;2023-05-18T23:23:52;11.03;;;5.03;;
20523;SDS011;10420;48.542;12.270;2023-05-18T23:28:53;11.63;;;4.77;;
20523;SDS011;10420;48.542;12.270;2023-05-18T23:33:54;8.77;;;4.57;;
20523;SDS011;10420;48.542;12.270;2023-05-18T23:38:55;10.73;;;5.00;;
20523;SDS011;10420;48.542;12.270;2023-05-18T23:44:00;15.47;;;5.17;;
20523;SDS011;10420;48.542;12.270;2023-05-18T23:49:01;10.13;;;5.13;;
20523;SDS011;10420;48.542;12.270;2023-05-18T23:54:03;14.43;;;5.77;;
20523;SDS011;10420;48.542;12.270;2023-05-18T23:59:06;10.90;;;5.67;;
